Terminal Aerodrome Forecast
Issued by NWS Portland, OR

Home | Current Version | Previous Version | Text Only | Print | Product List | Glossary On
Versions: 1 2 3 4 5 6 7 8 9 10 11 12 13 14 15 16 17 18 19 20 21 22 23 24 25 26 27 28 29 30 31 32 33 34 35 36 37
000
FTUS46 KPQR 022346
TAFHIO
TAF
KHIO 022346Z 0300/0324 VRB03KT P6SM VCSH BKN015 OVC035
     FM030600 VRB03KT P6SM SCT008 BKN015 OVC025
     FM030900 VRB02KT 6SM BR BKN008 OVC015
     FM031200 VRB02KT 4SM BR BKN004 OVC012
     FM031700 VRB02KT P6SM BKN008 OVC015
     FM031900 VRB03KT P6SM SCT008 BKN015 OVC040=

USA.gov is the U.S. government's official web portal to all federal, state and local government web resources and services.